sensor_id;sensor_type;location;lat;lon;timestamp;P1;durP1;ratioP1;P2;durP2;ratioP2
84031;SDS011;74113;46.556;24.570;2024-02-23T00:01:34;14.50;;;7.90;;
84031;SDS011;74113;46.556;24.570;2024-02-23T00:04:03;14.90;;;6.60;;
84031;SDS011;74113;46.556;24.570;2024-02-23T00:06:34;12.80;;;7.40;;
84031;SDS011;74113;46.556;24.570;2024-02-23T00:09:03;11.30;;;6.80;;
84031;SDS011;74113;46.556;24.570;2024-02-23T00:11:32;15.20;;;7.60;;
84031;SDS011;74113;46.556;24.570;2024-02-23T00:14:02;11.10;;;6.10;;
84031;SDS011;74113;46.556;24.570;2024-02-23T00:16:36;10.80;;;5.50;;
84031;SDS011;74113;46.556;24.570;2024-02-23T00:19:08;9.90;;;4.70;;
84031;SDS011;74113;46.556;24.570;2024-02-23T00:21:38;8.90;;;5.60;;
84031;SDS011;74113;46.556;24.570;2024-02-23T00:24:07;11.40;;;4.80;;
84031;SDS011;74113;46.556;24.570;2024-02-23T00:26:36;10.70;;;5.90;;
84031;SDS011;74113;46.556;24.570;2024-02-23T00:29:05;7.10;;;3.20;;
84031;SDS011;74113;46.556;24.570;2024-02-23T00:31:34;8.50;;;5.50;;
84031;SDS011;74113;46.556;24.570;2024-02-23T00:34:07;9.40;;;7.20;;
84031;SDS011;74113;46.556;24.570;2024-02-23T00:36:39;11.00;;;4.80;;
84031;SDS011;74113;46.556;24.570;2024-02-23T00:39:10;14.30;;;8.00;;
84031;SDS011;74113;46.556;24.570;2024-02-23T00:41:39;10.60;;;6.80;;
84031;SDS011;74113;46.556;24.570;2024-02-23T00:44:08;10.20;;;5.80;;
84031;SDS011;74113;46.556;24.570;2024-02-23T00:46:37;11.80;;;9.30;;
84031;SDS011;74113;46.556;24.570;2024-02-23T00:49:07;9.50;;;6.20;;
84031;SDS011;74113;46.556;24.570;2024-02-23T00:51:36;13.10;;;7.50;;
84031;SDS011;74113;46.556;24.570;2024-02-23T00:54:05;9.90;;;5.80;;
84031;SDS011;74113;46.556;24.570;2024-02-23T00:56:36;13.80;;;6.70;;
84031;SDS011;74113;46.556;24.570;2024-02-23T00:59:18;10.60;;;5.30;;
84031;SDS011;74113;46.556;24.570;2024-02-23T01:01:47;9.30;;;4.80;;
84031;SDS011;74113;46.556;24.570;2024-02-23T01:04:16;8.20;;;4.50;;
84031;SDS011;74113;46.556;24.570;2024-02-23T01:06:45;12.10;;;5.70;;
84031;SDS011;74113;46.556;24.570;2024-02-23T01:09:14;9.80;;;4.80;;
84031;SDS011;74113;46.556;24.570;2024-02-23T01:11:45;11.90;;;5.30;;
84031;SDS011;74113;46.556;24.570;2024-02-23T01:14:15;9.90;;;5.20;;
84031;SDS011;74113;46.556;24.570;2024-02-23T01:16:44;8.70;;;4.10;;
84031;SDS011;74113;46.556;24.570;2024-02-23T01:19:13;8.60;;;4.20;;
84031;SDS011;74113;46.556;24.570;2024-02-23T01:21:44;8.10;;;5.40;;
84031;SDS011;74113;46.556;24.570;2024-02-23T01:24:13;7.90;;;5.00;;
84031;SDS011;74113;46.556;24.570;2024-02-23T01:26:43;8.50;;;4.40;;
84031;SDS011;74113;46.556;24.570;2024-02-23T01:29:11;10.00;;;4.70;;
84031;SDS011;74113;46.556;24.570;2024-02-23T01:31:40;10.60;;;4.50;;
84031;SDS011;74113;46.556;24.570;2024-02-23T01:34:09;9.30;;;6.30;;
84031;SDS011;74113;46.556;24.570;2024-02-23T01:36:38;7.60;;;4.40;;
84031;SDS011;74113;46.556;24.570;2024-02-23T01:39:07;8.40;;;4.60;;
84031;SDS011;74113;46.556;24.570;2024-02-23T01:41:36;7.70;;;4.30;;
84031;SDS011;74113;46.556;24.570;2024-02-23T01:44:05;10.70;;;4.60;;
84031;SDS011;74113;46.556;24.570;2024-02-23T01:46:34;11.30;;;5.30;;
84031;SDS011;74113;46.556;24.570;2024-02-23T01:49:04;11.90;;;5.60;;
84031;SDS011;74113;46.556;24.570;2024-02-23T01:51:33;6.30;;;3.70;;
84031;SDS011;74113;46.556;24.570;2024-02-23T01:54:04;6.80;;;4.00;;
84031;SDS011;74113;46.556;24.570;2024-02-23T01:56:34;7.10;;;3.80;;
84031;SDS011;74113;46.556;24.570;2024-02-23T01:59:05;9.40;;;5.00;;
84031;SDS011;74113;46.556;24.570;2024-02-23T02:01:35;10.10;;;6.70;;
84031;SDS011;74113;46.556;24.570;2024-02-23T02:04:04;8.50;;;5.30;;
84031;SDS011;74113;46.556;24.570;2024-02-23T02:06:38;7.50;;;3.70;;
84031;SDS011;74113;46.556;24.570;2024-02-23T02:09:07;7.80;;;4.20;;
84031;SDS011;74113;46.556;24.570;2024-02-23T02:11:44;7.70;;;4.60;;
84031;SDS011;74113;46.556;24.570;2024-02-23T02:14:14;9.10;;;5.40;;
84031;SDS011;74113;46.556;24.570;2024-02-23T02:16:44;9.50;;;4.70;;
84031;SDS011;74113;46.556;24.570;2024-02-23T02:19:13;9.00;;;3.60;;
84031;SDS011;74113;46.556;24.570;2024-02-23T02:21:43;7.90;;;4.90;;
84031;SDS011;74113;46.556;24.570;2024-02-23T02:24:12;10.80;;;5.50;;
84031;SDS011;74113;46.556;24.570;2024-02-23T02:26:42;10.80;;;5.30;;
84031;SDS011;74113;46.556;24.570;2024-02-23T02:29:13;10.10;;;4.90;;
84031;SDS011;74113;46.556;24.570;2024-02-23T02:31:42;6.40;;;3.90;;
84031;SDS011;74113;46.556;24.570;2024-02-23T02:34:11;8.70;;;4.80;;
84031;SDS011;74113;46.556;24.570;2024-02-23T02:36:43;8.40;;;4.30;;
84031;SDS011;74113;46.556;24.570;2024-02-23T02:41:40;8.70;;;5.10;;
84031;SDS011;74113;46.556;24.570;2024-02-23T02:44:08;8.50;;;4.20;;
84031;SDS011;74113;46.556;24.570;2024-02-23T02:46:37;7.80;;;3.90;;
84031;SDS011;74113;46.556;24.570;2024-02-23T02:49:07;9.20;;;5.00;;
84031;SDS011;74113;46.556;24.570;2024-02-23T02:51:36;10.30;;;6.40;;
84031;SDS011;74113;46.556;24.570;2024-02-23T02:54:05;8.20;;;4.40;;
84031;SDS011;74113;46.556;24.570;2024-02-23T02:56:35;9.60;;;5.20;;
84031;SDS011;74113;46.556;24.570;2024-02-23T02:59:03;9.20;;;5.10;;
84031;SDS011;74113;46.556;24.570;2024-02-23T03:01:32;8.20;;;5.40;;
84031;SDS011;74113;46.556;24.570;2024-02-23T03:04:01;8.30;;;4.10;;
84031;SDS011;74113;46.556;24.570;2024-02-23T03:06:31;9.20;;;4.60;;
84031;SDS011;74113;46.556;24.570;2024-02-23T03:09:00;8.80;;;5.00;;
84031;SDS011;74113;46.556;24.570;2024-02-23T03:11:29;10.70;;;5.40;;
84031;SDS011;74113;46.556;24.570;2024-02-23T03:13:58;7.70;;;4.10;;
84031;SDS011;74113;46.556;24.570;2024-02-23T03:16:30;9.30;;;3.60;;
84031;SDS011;74113;46.556;24.570;2024-02-23T03:18:59;8.10;;;4.50;;
84031;SDS011;74113;46.556;24.570;2024-02-23T03:21:28;7.40;;;4.10;;
84031;SDS011;74113;46.556;24.570;2024-02-23T03:23:57;11.30;;;6.40;;
84031;SDS011;74113;46.556;24.570;2024-02-23T03:26:25;9.60;;;7.40;;
84031;SDS011;74113;46.556;24.570;2024-02-23T03:28:55;8.80;;;4.50;;
84031;SDS011;74113;46.556;24.570;2024-02-23T03:31:24;11.20;;;5.30;;
84031;SDS011;74113;46.556;24.570;2024-02-23T03:33:52;8.90;;;4.40;;
84031;SDS011;74113;46.556;24.570;2024-02-23T03:36:21;9.00;;;3.60;;
84031;SDS011;74113;46.556;24.570;2024-02-23T03:38:50;9.20;;;5.90;;
84031;SDS011;74113;46.556;24.570;2024-02-23T03:41:18;7.10;;;3.70;;
84031;SDS011;74113;46.556;24.570;2024-02-23T03:43:47;5.90;;;3.40;;
84031;SDS011;74113;46.556;24.570;2024-02-23T03:46:16;6.80;;;3.80;;
84031;SDS011;74113;46.556;24.570;2024-02-23T03:48:46;7.50;;;4.10;;
84031;SDS011;74113;46.556;24.570;2024-02-23T03:51:15;8.60;;;3.90;;
84031;SDS011;74113;46.556;24.570;2024-02-23T03:53:45;6.00;;;3.30;;
84031;SDS011;74113;46.556;24.570;2024-02-23T03:56:15;7.60;;;3.90;;
84031;SDS011;74113;46.556;24.570;2024-02-23T03:58:44;6.50;;;4.40;;
84031;SDS011;74113;46.556;24.570;2024-02-23T04:01:12;6.30;;;3.20;;
84031;SDS011;74113;46.556;24.570;2024-02-23T04:03:42;8.70;;;4.60;;
84031;SDS011;74113;46.556;24.570;2024-02-23T04:06:11;11.10;;;6.70;;
84031;SDS011;74113;46.556;24.570;2024-02-23T04:08:40;9.40;;;4.20;;
84031;SDS011;74113;46.556;24.570;2024-02-23T04:11:12;9.60;;;5.40;;
84031;SDS011;74113;46.556;24.570;2024-02-23T04:13:41;8.70;;;6.80;;
84031;SDS011;74113;46.556;24.570;2024-02-23T04:16:10;7.40;;;4.30;;
84031;SDS011;74113;46.556;24.570;2024-02-23T04:18:39;7.30;;;4.30;;
84031;SDS011;74113;46.556;24.570;2024-02-23T04:21:07;9.20;;;4.70;;
84031;SDS011;74113;46.556;24.570;2024-02-23T04:23:36;8.30;;;5.10;;
84031;SDS011;74113;46.556;24.570;2024-02-23T04:26:05;9.80;;;4.50;;
84031;SDS011;74113;46.556;24.570;2024-02-23T04:28:34;14.20;;;7.30;;
84031;SDS011;74113;46.556;24.570;2024-02-23T04:31:03;10.70;;;5.90;;
84031;SDS011;74113;46.556;24.570;2024-02-23T04:33:32;12.50;;;7.50;;
84031;SDS011;74113;46.556;24.570;2024-02-23T04:36:03;10.00;;;5.80;;
84031;SDS011;74113;46.556;24.570;2024-02-23T04:38:33;9.80;;;4.90;;
84031;SDS011;74113;46.556;24.570;2024-02-23T04:41:05;10.10;;;4.50;;
84031;SDS011;74113;46.556;24.570;2024-02-23T04:43:34;9.70;;;4.70;;
84031;SDS011;74113;46.556;24.570;2024-02-23T04:46:02;15.20;;;7.70;;
84031;SDS011;74113;46.556;24.570;2024-02-23T04:48:34;13.20;;;6.50;;
84031;SDS011;74113;46.556;24.570;2024-02-23T04:51:04;13.20;;;6.50;;
84031;SDS011;74113;46.556;24.570;2024-02-23T04:53:37;15.30;;;7.70;;
84031;SDS011;74113;46.556;24.570;2024-02-23T04:56:07;13.20;;;6.40;;
84031;SDS011;74113;46.556;24.570;2024-02-23T04:58:36;16.30;;;10.60;;
84031;SDS011;74113;46.556;24.570;2024-02-23T05:01:06;17.60;;;8.60;;
84031;SDS011;74113;46.556;24.570;2024-02-23T05:03:35;24.70;;;9.70;;
84031;SDS011;74113;46.556;24.570;2024-02-23T05:06:04;19.80;;;11.20;;
84031;SDS011;74113;46.556;24.570;2024-02-23T05:08:33;20.30;;;10.60;;
84031;SDS011;74113;46.556;24.570;2024-02-23T05:11:06;21.00;;;10.30;;
84031;SDS011;74113;46.556;24.570;2024-02-23T05:13:38;17.50;;;8.30;;
84031;SDS011;74113;46.556;24.570;2024-02-23T05:16:13;15.70;;;6.90;;
84031;SDS011;74113;46.556;24.570;2024-02-23T05:18:43;12.30;;;6.90;;
84031;SDS011;74113;46.556;24.570;2024-02-23T05:21:15;18.00;;;9.50;;
84031;SDS011;74113;46.556;24.570;2024-02-23T05:23:44;17.20;;;8.60;;
84031;SDS011;74113;46.556;24.570;2024-02-23T05:26:15;21.90;;;10.00;;
84031;SDS011;74113;46.556;24.570;2024-02-23T05:28:44;15.20;;;7.10;;
84031;SDS011;74113;46.556;24.570;2024-02-23T05:31:13;17.40;;;9.20;;
84031;SDS011;74113;46.556;24.570;2024-02-23T05:33:42;23.50;;;11.40;;
84031;SDS011;74113;46.556;24.570;2024-02-23T05:36:13;19.10;;;8.50;;
84031;SDS011;74113;46.556;24.570;2024-02-23T05:38:47;20.80;;;9.80;;
84031;SDS011;74113;46.556;24.570;2024-02-23T05:41:17;17.50;;;8.20;;
84031;SDS011;74113;46.556;24.570;2024-02-23T05:43:48;22.00;;;12.20;;
84031;SDS011;74113;46.556;24.570;2024-02-23T05:46:18;23.50;;;10.80;;
84031;SDS011;74113;46.556;24.570;2024-02-23T05:48:52;19.50;;;10.70;;
84031;SDS011;74113;46.556;24.570;2024-02-23T05:51:46;19.90;;;10.50;;
84031;SDS011;74113;46.556;24.570;2024-02-23T05:54:15;21.60;;;12.00;;
84031;SDS011;74113;46.556;24.570;2024-02-23T05:56:45;18.30;;;9.20;;
84031;SDS011;74113;46.556;24.570;2024-02-23T05:59:17;20.20;;;10.00;;
84031;SDS011;74113;46.556;24.570;2024-02-23T06:01:48;17.30;;;9.50;;
84031;SDS011;74113;46.556;24.570;2024-02-23T06:04:18;18.40;;;7.20;;
84031;SDS011;74113;46.556;24.570;2024-02-23T06:06:48;10.90;;;5.20;;
84031;SDS011;74113;46.556;24.570;2024-02-23T06:09:18;16.20;;;7.70;;
84031;SDS011;74113;46.556;24.570;2024-02-23T06:11:47;12.20;;;6.00;;
84031;SDS011;74113;46.556;24.570;2024-02-23T06:14:18;14.50;;;9.30;;
84031;SDS011;74113;46.556;24.570;2024-02-23T06:16:49;17.30;;;8.10;;
84031;SDS011;74113;46.556;24.570;2024-02-23T06:19:20;15.70;;;6.80;;
84031;SDS011;74113;46.556;24.570;2024-02-23T06:21:52;12.80;;;5.80;;
84031;SDS011;74113;46.556;24.570;2024-02-23T06:24:24;11.70;;;6.70;;
84031;SDS011;74113;46.556;24.570;2024-02-23T06:26:57;14.90;;;8.50;;
84031;SDS011;74113;46.556;24.570;2024-02-23T06:29:29;12.80;;;7.80;;
84031;SDS011;74113;46.556;24.570;2024-02-23T06:32:02;14.90;;;7.00;;
84031;SDS011;74113;46.556;24.570;2024-02-23T06:34:32;13.20;;;8.60;;
84031;SDS011;74113;46.556;24.570;2024-02-23T06:37:01;12.30;;;6.00;;
84031;SDS011;74113;46.556;24.570;2024-02-23T06:39:32;8.20;;;4.90;;
84031;SDS011;74113;46.556;24.570;2024-02-23T06:42:04;13.00;;;7.30;;
84031;SDS011;74113;46.556;24.570;2024-02-23T06:44:34;12.20;;;6.20;;
84031;SDS011;74113;46.556;24.570;2024-02-23T06:47:04;12.00;;;6.00;;
84031;SDS011;74113;46.556;24.570;2024-02-23T06:49:33;11.40;;;5.20;;
84031;SDS011;74113;46.556;24.570;2024-02-23T06:52:05;21.50;;;11.70;;
84031;SDS011;74113;46.556;24.570;2024-02-23T06:54:34;18.10;;;10.00;;
84031;SDS011;74113;46.556;24.570;2024-02-23T06:57:04;19.40;;;9.40;;
84031;SDS011;74113;46.556;24.570;2024-02-23T06:59:33;21.30;;;10.10;;
84031;SDS011;74113;46.556;24.570;2024-02-23T07:02:04;13.60;;;6.50;;
84031;SDS011;74113;46.556;24.570;2024-02-23T07:04:33;14.60;;;7.50;;
84031;SDS011;74113;46.556;24.570;2024-02-23T07:07:03;11.90;;;5.40;;
84031;SDS011;74113;46.556;24.570;2024-02-23T07:09:38;12.00;;;4.90;;
84031;SDS011;74113;46.556;24.570;2024-02-23T07:12:08;12.70;;;6.80;;
84031;SDS011;74113;46.556;24.570;2024-02-23T07:14:41;18.50;;;9.80;;
84031;SDS011;74113;46.556;24.570;2024-02-23T07:17:10;12.40;;;7.50;;
84031;SDS011;74113;46.556;24.570;2024-02-23T07:19:41;13.90;;;6.80;;
84031;SDS011;74113;46.556;24.570;2024-02-23T07:22:11;11.40;;;6.00;;
84031;SDS011;74113;46.556;24.570;2024-02-23T07:24:41;12.30;;;6.90;;
84031;SDS011;74113;46.556;24.570;2024-02-23T07:27:10;13.30;;;7.10;;
84031;SDS011;74113;46.556;24.570;2024-02-23T07:29:40;10.80;;;5.50;;
84031;SDS011;74113;46.556;24.570;2024-02-23T07:32:09;11.40;;;6.80;;
84031;SDS011;74113;46.556;24.570;2024-02-23T07:34:39;11.80;;;6.40;;
84031;SDS011;74113;46.556;24.570;2024-02-23T07:37:08;9.80;;;4.50;;
84031;SDS011;74113;46.556;24.570;2024-02-23T07:39:39;9.00;;;4.40;;
84031;SDS011;74113;46.556;24.570;2024-02-23T07:42:09;8.20;;;4.60;;
84031;SDS011;74113;46.556;24.570;2024-02-23T07:44:39;10.20;;;5.50;;
84031;SDS011;74113;46.556;24.570;2024-02-23T07:47:09;10.00;;;5.10;;
84031;SDS011;74113;46.556;24.570;2024-02-23T07:49:38;9.00;;;6.10;;
84031;SDS011;74113;46.556;24.570;2024-02-23T07:52:09;9.50;;;4.20;;
84031;SDS011;74113;46.556;24.570;2024-02-23T07:54:38;6.80;;;3.60;;
84031;SDS011;74113;46.556;24.570;2024-02-23T07:57:07;8.50;;;4.00;;
84031;SDS011;74113;46.556;24.570;2024-02-23T07:59:37;8.20;;;3.70;;
84031;SDS011;74113;46.556;24.570;2024-02-23T08:02:06;9.00;;;4.30;;
84031;SDS011;74113;46.556;24.570;2024-02-23T08:04:35;7.90;;;4.40;;
84031;SDS011;74113;46.556;24.570;2024-02-23T08:07:07;7.20;;;3.90;;
84031;SDS011;74113;46.556;24.570;2024-02-23T08:09:38;5.70;;;3.80;;
84031;SDS011;74113;46.556;24.570;2024-02-23T08:12:11;8.60;;;3.50;;
84031;SDS011;74113;46.556;24.570;2024-02-23T08:14:49;8.10;;;3.50;;
84031;SDS011;74113;46.556;24.570;2024-02-23T08:17:33;10.90;;;4.90;;
84031;SDS011;74113;46.556;24.570;2024-02-23T08:20:03;8.60;;;3.50;;
84031;SDS011;74113;46.556;24.570;2024-02-23T08:22:34;6.50;;;2.70;;
84031;SDS011;74113;46.556;24.570;2024-02-23T08:25:03;5.00;;;2.70;;
84031;SDS011;74113;46.556;24.570;2024-02-23T08:27:33;5.60;;;2.70;;
84031;SDS011;74113;46.556;24.570;2024-02-23T08:30:02;8.10;;;4.30;;
84031;SDS011;74113;46.556;24.570;2024-02-23T08:32:32;8.80;;;3.40;;
84031;SDS011;74113;46.556;24.570;2024-02-23T08:35:02;7.70;;;3.10;;
84031;SDS011;74113;46.556;24.570;2024-02-23T08:37:32;7.60;;;3.90;;
84031;SDS011;74113;46.556;24.570;2024-02-23T08:40:02;7.30;;;4.30;;
84031;SDS011;74113;46.556;24.570;2024-02-23T08:42:39;8.40;;;4.60;;
84031;SDS011;74113;46.556;24.570;2024-02-23T08:45:09;6.20;;;3.10;;
84031;SDS011;74113;46.556;24.570;2024-02-23T08:47:42;7.70;;;3.60;;
84031;SDS011;74113;46.556;24.570;2024-02-23T08:50:11;9.50;;;4.70;;
84031;SDS011;74113;46.556;24.570;2024-02-23T08:52:41;4.70;;;2.70;;
84031;SDS011;74113;46.556;24.570;2024-02-23T08:55:10;14.30;;;6.80;;
84031;SDS011;74113;46.556;24.570;2024-02-23T08:57:40;5.80;;;3.50;;
84031;SDS011;74113;46.556;24.570;2024-02-23T09:00:11;4.10;;;2.00;;
84031;SDS011;74113;46.556;24.570;2024-02-23T09:02:45;4.10;;;1.60;;
84031;SDS011;74113;46.556;24.570;2024-02-23T09:05:14;4.40;;;1.70;;
84031;SDS011;74113;46.556;24.570;2024-02-23T09:07:44;3.10;;;1.40;;
84031;SDS011;74113;46.556;24.570;2024-02-23T09:10:21;3.40;;;2.00;;
84031;SDS011;74113;46.556;24.570;2024-02-23T09:12:50;3.10;;;1.60;;
84031;SDS011;74113;46.556;24.570;2024-02-23T09:15:22;2.60;;;1.50;;
84031;SDS011;74113;46.556;24.570;2024-02-23T09:17:54;3.50;;;1.60;;
84031;SDS011;74113;46.556;24.570;2024-02-23T09:20:25;4.00;;;1.80;;
84031;SDS011;74113;46.556;24.570;2024-02-23T09:23:00;4.70;;;2.30;;
84031;SDS011;74113;46.556;24.570;2024-02-23T09:25:32;4.30;;;2.40;;
84031;SDS011;74113;46.556;24.570;2024-02-23T09:28:01;5.20;;;2.60;;
84031;SDS011;74113;46.556;24.570;2024-02-23T09:30:32;4.70;;;2.50;;
84031;SDS011;74113;46.556;24.570;2024-02-23T09:33:02;4.60;;;1.80;;
84031;SDS011;74113;46.556;24.570;2024-02-23T09:35:32;5.60;;;3.40;;
84031;SDS011;74113;46.556;24.570;2024-02-23T09:38:05;6.60;;;3.70;;
84031;SDS011;74113;46.556;24.570;2024-02-23T09:40:35;6.40;;;3.00;;
84031;SDS011;74113;46.556;24.570;2024-02-23T09:43:05;4.50;;;2.80;;
84031;SDS011;74113;46.556;24.570;2024-02-23T09:48:10;6.20;;;2.50;;
84031;SDS011;74113;46.556;24.570;2024-02-23T09:50:44;4.20;;;2.20;;
84031;SDS011;74113;46.556;24.570;2024-02-23T09:53:16;7.20;;;3.80;;
84031;SDS011;74113;46.556;24.570;2024-02-23T09:55:49;5.60;;;3.50;;
84031;SDS011;74113;46.556;24.570;2024-02-23T09:58:21;6.50;;;3.60;;
84031;SDS011;74113;46.556;24.570;2024-02-23T10:00:53;5.70;;;4.00;;
84031;SDS011;74113;46.556;24.570;2024-02-23T10:03:27;7.90;;;4.40;;
84031;SDS011;74113;46.556;24.570;2024-02-23T10:06:19;7.90;;;3.20;;
84031;SDS011;74113;46.556;24.570;2024-02-23T10:09:01;4.00;;;2.40;;
84031;SDS011;74113;46.556;24.570;2024-02-23T10:11:35;6.10;;;2.30;;
84031;SDS011;74113;46.556;24.570;2024-02-23T10:14:05;3.40;;;2.00;;
84031;SDS011;74113;46.556;24.570;2024-02-23T10:16:35;2.70;;;1.60;;
84031;SDS011;74113;46.556;24.570;2024-02-23T10:22:09;2.30;;;1.50;;
84031;SDS011;74113;46.556;24.570;2024-02-23T10:24:42;2.10;;;0.90;;
84031;SDS011;74113;46.556;24.570;2024-02-23T10:27:12;1.90;;;0.80;;
84031;SDS011;74113;46.556;24.570;2024-02-23T10:29:42;2.80;;;1.70;;
84031;SDS011;74113;46.556;24.570;2024-02-23T10:32:14;2.90;;;1.30;;
84031;SDS011;74113;46.556;24.570;2024-02-23T10:34:44;3.00;;;1.30;;
84031;SDS011;74113;46.556;24.570;2024-02-23T10:37:20;2.50;;;1.30;;
84031;SDS011;74113;46.556;24.570;2024-02-23T10:39:53;2.20;;;0.90;;
84031;SDS011;74113;46.556;24.570;2024-02-23T10:42:28;2.90;;;1.30;;
84031;SDS011;74113;46.556;24.570;2024-02-23T10:45:04;3.50;;;2.10;;
84031;SDS011;74113;46.556;24.570;2024-02-23T10:47:34;3.80;;;1.50;;
84031;SDS011;74113;46.556;24.570;2024-02-23T10:50:06;1.50;;;0.70;;
84031;SDS011;74113;46.556;24.570;2024-02-23T10:52:37;2.40;;;1.00;;
84031;SDS011;74113;46.556;24.570;2024-02-23T10:55:11;2.40;;;0.90;;
84031;SDS011;74113;46.556;24.570;2024-02-23T10:57:41;1.40;;;0.60;;
84031;SDS011;74113;46.556;24.570;2024-02-23T11:00:10;1.70;;;0.70;;
84031;SDS011;74113;46.556;24.570;2024-02-23T11:02:46;2.30;;;1.30;;
84031;SDS011;74113;46.556;24.570;2024-02-23T11:05:18;2.10;;;1.10;;
84031;SDS011;74113;46.556;24.570;2024-02-23T11:07:48;3.30;;;1.00;;
84031;SDS011;74113;46.556;24.570;2024-02-23T11:10:19;3.90;;;2.90;;
84031;SDS011;74113;46.556;24.570;2024-02-23T11:13:02;2.90;;;1.30;;
84031;SDS011;74113;46.556;24.570;2024-02-23T11:15:36;2.30;;;0.90;;
84031;SDS011;74113;46.556;24.570;2024-02-23T11:18:27;5.50;;;1.60;;
84031;SDS011;74113;46.556;24.570;2024-02-23T11:20:58;2.80;;;2.10;;
84031;SDS011;74113;46.556;24.570;2024-02-23T11:23:42;2.20;;;1.40;;
84031;SDS011;74113;46.556;24.570;2024-02-23T11:26:14;2.00;;;0.90;;
84031;SDS011;74113;46.556;24.570;2024-02-23T11:28:50;2.00;;;1.20;;
84031;SDS011;74113;46.556;24.570;2024-02-23T11:31:22;2.20;;;0.80;;
84031;SDS011;74113;46.556;24.570;2024-02-23T11:33:55;1.10;;;0.50;;
84031;SDS011;74113;46.556;24.570;2024-02-23T11:38:59;1.20;;;0.50;;
84031;SDS011;74113;46.556;24.570;2024-02-23T11:41:30;1.70;;;1.50;;
84031;SDS011;74113;46.556;24.570;2024-02-23T11:44:00;1.70;;;0.90;;
84031;SDS011;74113;46.556;24.570;2024-02-23T11:46:31;2.20;;;0.90;;
84031;SDS011;74113;46.556;24.570;2024-02-23T11:49:00;2.20;;;1.10;;
84031;SDS011;74113;46.556;24.570;2024-02-23T11:51:29;3.40;;;1.20;;
84031;SDS011;74113;46.556;24.570;2024-02-23T11:53:59;3.80;;;2.00;;
84031;SDS011;74113;46.556;24.570;2024-02-23T11:56:29;2.80;;;0.90;;
84031;SDS011;74113;46.556;24.570;2024-02-23T11:58:58;2.70;;;1.50;;
84031;SDS011;74113;46.556;24.570;2024-02-23T12:01:29;1.90;;;1.70;;
84031;SDS011;74113;46.556;24.570;2024-02-23T12:04:04;2.30;;;1.60;;
84031;SDS011;74113;46.556;24.570;2024-02-23T12:06:36;3.20;;;0.80;;
84031;SDS011;74113;46.556;24.570;2024-02-23T12:09:06;2.30;;;1.60;;
84031;SDS011;74113;46.556;24.570;2024-02-23T12:11:36;2.30;;;1.10;;
84031;SDS011;74113;46.556;24.570;2024-02-23T12:14:07;2.40;;;0.90;;
84031;SDS011;74113;46.556;24.570;2024-02-23T12:16:37;2.10;;;1.70;;
84031;SDS011;74113;46.556;24.570;2024-02-23T12:19:09;1.80;;;0.50;;
84031;SDS011;74113;46.556;24.570;2024-02-23T12:21:39;1.30;;;0.60;;
84031;SDS011;74113;46.556;24.570;2024-02-23T12:24:10;1.70;;;0.80;;
84031;SDS011;74113;46.556;24.570;2024-02-23T12:26:41;1.70;;;0.90;;
84031;SDS011;74113;46.556;24.570;2024-02-23T12:29:09;1.30;;;0.90;;
84031;SDS011;74113;46.556;24.570;2024-02-23T12:31:38;2.00;;;0.70;;
84031;SDS011;74113;46.556;24.570;2024-02-23T12:34:07;2.40;;;2.20;;
84031;SDS011;74113;46.556;24.570;2024-02-23T12:36:42;2.40;;;2.20;;
84031;SDS011;74113;46.556;24.570;2024-02-23T12:39:11;3.40;;;1.40;;
84031;SDS011;74113;46.556;24.570;2024-02-23T12:41:40;1.30;;;0.80;;
84031;SDS011;74113;46.556;24.570;2024-02-23T12:44:10;1.50;;;0.80;;
84031;SDS011;74113;46.556;24.570;2024-02-23T12:46:42;1.30;;;0.30;;
84031;SDS011;74113;46.556;24.570;2024-02-23T12:49:10;2.30;;;1.10;;
84031;SDS011;74113;46.556;24.570;2024-02-23T12:51:39;1.70;;;1.20;;
84031;SDS011;74113;46.556;24.570;2024-02-23T12:54:09;1.90;;;0.60;;
84031;SDS011;74113;46.556;24.570;2024-02-23T12:56:38;2.10;;;1.10;;
84031;SDS011;74113;46.556;24.570;2024-02-23T12:59:08;2.70;;;2.20;;
84031;SDS011;74113;46.556;24.570;2024-02-23T13:01:40;2.00;;;1.00;;
84031;SDS011;74113;46.556;24.570;2024-02-23T13:04:13;1.20;;;0.60;;
84031;SDS011;74113;46.556;24.570;2024-02-23T13:06:42;1.20;;;0.60;;
84031;SDS011;74113;46.556;24.570;2024-02-23T13:09:11;1.70;;;1.00;;
84031;SDS011;74113;46.556;24.570;2024-02-23T13:11:40;3.20;;;1.50;;
84031;SDS011;74113;46.556;24.570;2024-02-23T13:14:10;2.50;;;1.00;;
84031;SDS011;74113;46.556;24.570;2024-02-23T13:16:39;1.70;;;0.90;;
84031;SDS011;74113;46.556;24.570;2024-02-23T13:19:09;1.90;;;1.30;;
84031;SDS011;74113;46.556;24.570;2024-02-23T13:21:38;2.50;;;0.40;;
84031;SDS011;74113;46.556;24.570;2024-02-23T13:24:08;1.90;;;0.90;;
84031;SDS011;74113;46.556;24.570;2024-02-23T13:26:37;2.20;;;1.20;;
84031;SDS011;74113;46.556;24.570;2024-02-23T13:29:06;2.30;;;0.90;;
84031;SDS011;74113;46.556;24.570;2024-02-23T13:31:35;3.50;;;1.30;;
84031;SDS011;74113;46.556;24.570;2024-02-23T13:34:08;5.10;;;1.20;;
84031;SDS011;74113;46.556;24.570;2024-02-23T13:36:41;2.70;;;0.70;;
84031;SDS011;74113;46.556;24.570;2024-02-23T13:39:10;2.80;;;1.60;;
84031;SDS011;74113;46.556;24.570;2024-02-23T13:41:39;2.20;;;1.50;;
84031;SDS011;74113;46.556;24.570;2024-02-23T13:44:08;1.30;;;0.40;;
84031;SDS011;74113;46.556;24.570;2024-02-23T13:46:38;2.20;;;1.50;;
84031;SDS011;74113;46.556;24.570;2024-02-23T13:49:08;4.00;;;2.30;;
84031;SDS011;74113;46.556;24.570;2024-02-23T13:51:38;1.90;;;0.70;;
84031;SDS011;74113;46.556;24.570;2024-02-23T13:54:07;1.70;;;0.80;;
84031;SDS011;74113;46.556;24.570;2024-02-23T13:56:36;1.50;;;1.10;;
84031;SDS011;74113;46.556;24.570;2024-02-23T13:59:05;1.10;;;0.60;;
84031;SDS011;74113;46.556;24.570;2024-02-23T14:01:34;1.80;;;0.90;;
84031;SDS011;74113;46.556;24.570;2024-02-23T14:04:05;1.90;;;0.60;;
84031;SDS011;74113;46.556;24.570;2024-02-23T14:06:35;2.10;;;1.50;;
84031;SDS011;74113;46.556;24.570;2024-02-23T14:09:05;2.50;;;1.20;;
84031;SDS011;74113;46.556;24.570;2024-02-23T14:11:36;4.30;;;2.00;;
84031;SDS011;74113;46.556;24.570;2024-02-23T14:14:05;1.80;;;0.60;;
84031;SDS011;74113;46.556;24.570;2024-02-23T14:16:36;2.10;;;0.90;;
84031;SDS011;74113;46.556;24.570;2024-02-23T14:19:05;1.10;;;0.60;;
84031;SDS011;74113;46.556;24.570;2024-02-23T14:21:35;2.00;;;1.80;;
84031;SDS011;74113;46.556;24.570;2024-02-23T14:24:05;2.50;;;1.90;;
84031;SDS011;74113;46.556;24.570;2024-02-23T14:26:36;2.40;;;1.00;;
84031;SDS011;74113;46.556;24.570;2024-02-23T14:29:05;2.50;;;1.90;;
84031;SDS011;74113;46.556;24.570;2024-02-23T14:31:34;2.70;;;1.20;;
84031;SDS011;74113;46.556;24.570;2024-02-23T14:34:04;4.10;;;1.60;;
84031;SDS011;74113;46.556;24.570;2024-02-23T14:36:33;2.20;;;1.20;;
84031;SDS011;74113;46.556;24.570;2024-02-23T14:39:02;3.40;;;1.30;;
84031;SDS011;74113;46.556;24.570;2024-02-23T14:41:32;1.70;;;1.00;;
84031;SDS011;74113;46.556;24.570;2024-02-23T14:44:01;2.10;;;1.20;;
84031;SDS011;74113;46.556;24.570;2024-02-23T14:46:30;3.40;;;2.50;;
84031;SDS011;74113;46.556;24.570;2024-02-23T14:48:59;1.60;;;0.80;;
84031;SDS011;74113;46.556;24.570;2024-02-23T14:51:28;1.90;;;0.90;;
84031;SDS011;74113;46.556;24.570;2024-02-23T14:53:57;1.50;;;0.50;;
84031;SDS011;74113;46.556;24.570;2024-02-23T14:56:26;1.50;;;0.60;;
84031;SDS011;74113;46.556;24.570;2024-02-23T14:58:55;1.40;;;0.50;;
84031;SDS011;74113;46.556;24.570;2024-02-23T15:01:25;1.30;;;0.80;;